Time;durP1;ratioP1;P1;durP2;ratioP2;P2;SDS_P1;SDS_P2;PMS_P1;PMS_P2;Temp;Humidity;BMP_temperature;BMP_pressure;BME280_temperature;BME280_humidity;BME280_pressure;Samples;Min_cycle;Max_cycle;Signal;HPM_P1;HPM_P2
2022/07/08 00:02:11;;;;;;;10.68;6.50;;;;;;;;;;5007937;28;20041;-74
2022/07/08 00:04:37;;;;;;;17.23;6.90;;;;;;;;;;5008477;28;20022;-73
2022/07/08 00:07:03;;;;;;;12.63;6.95;;;;;;;;;;5010374;28;20486;-74
2022/07/08 00:09:29;;;;;;;10.00;6.75;;;;;;;;;;5008858;28;20034;-74
2022/07/08 00:11:56;;;;;;;14.57;7.55;;;;;;;;;;5010175;28;20048;-74
2022/07/08 00:14:23;;;;;;;14.82;8.27;;;;;;;;;;5009820;28;20596;-74
2022/07/08 00:16:49;;;;;;;19.20;9.75;;;;;;;;;;5010074;28;20736;-74
2022/07/08 00:19:16;;;;;;;14.13;9.75;;;;;;;;;;5008874;28;20029;-74
2022/07/08 00:21:43;;;;;;;13.40;9.93;;;;;;;;;;5010261;28;20045;-74
2022/07/08 00:24:10;;;;;;;13.60;10.38;;;;;;;;;;5005588;28;20022;-74
2022/07/08 00:26:36;;;;;;;15.75;9.90;;;;;;;;;;5018166;28;20030;-74
2022/07/08 00:29:03;;;;;;;17.80;8.77;;;;;;;;;;5017493;28;20025;-73
2022/07/08 00:31:29;;;;;;;14.98;8.35;;;;;;;;;;5009666;28;20048;-74
2022/07/08 00:33:55;;;;;;;15.20;7.25;;;;;;;;;;5019942;28;20041;-74
2022/07/08 00:36:22;;;;;;;14.18;7.60;;;;;;;;;;5013475;28;20071;-74
2022/07/08 00:38:48;;;;;;;13.77;6.30;;;;;;;;;;5015362;28;20045;-73
2022/07/08 00:41:15;;;;;;;12.23;6.78;;;;;;;;;;5010687;28;20051;-73
2022/07/08 00:43:41;;;;;;;11.82;6.50;;;;;;;;;;5013837;28;20033;-73
2022/07/08 00:46:07;;;;;;;16.92;6.45;;;;;;;;;;5016691;28;20108;-74
2022/07/08 00:48:34;;;;;;;10.35;6.22;;;;;;;;;;5014897;28;20052;-74
2022/07/08 00:51:01;;;;;;;8.52;6.03;;;;;;;;;;5016007;28;20029;-74
2022/07/08 00:53:28;;;;;;;12.48;5.63;;;;;;;;;;5011506;28;20816;-73
2022/07/08 00:55:55;;;;;;;10.75;5.15;;;;;;;;;;5007857;28;20030;-74
2022/07/08 00:58:21;;;;;;;11.60;5.03;;;;;;;;;;5011241;28;20032;-74
2022/07/08 01:00:48;;;;;;;15.82;4.78;;;;;;;;;;5014157;28;20056;-74
2022/07/08 01:03:14;;;;;;;10.13;4.63;;;;;;;;;;5016598;28;20022;-74
2022/07/08 01:05:40;;;;;;;15.73;4.68;;;;;;;;;;5013535;28;20089;-74
2022/07/08 01:08:06;;;;;;;8.32;4.53;;;;;;;;;;5015780;28;20018;-74
2022/07/08 01:10:32;;;;;;;16.63;5.13;;;;;;;;;;5013768;28;20033;-74
2022/07/08 01:12:59;;;;;;;10.60;4.68;;;;;;;;;;5013728;28;20124;-73
2022/07/08 01:15:25;;;;;;;10.05;4.75;;;;;;;;;;5011873;28;20030;-74
2022/07/08 01:17:52;;;;;;;12.60;4.65;;;;;;;;;;5013331;28;20034;-74
2022/07/08 01:20:18;;;;;;;11.27;4.43;;;;;;;;;;5016636;28;20024;-74
2022/07/08 01:22:44;;;;;;;7.28;3.88;;;;;;;;;;5015462;28;20040;-74
2022/07/08 01:25:10;;;;;;;11.70;4.32;;;;;;;;;;5016093;28;20466;-74
2022/07/08 01:27:37;;;;;;;12.00;4.32;;;;;;;;;;5013920;28;20102;-74
2022/07/08 01:30:04;;;;;;;10.18;4.28;;;;;;;;;;5013927;28;20080;-74
2022/07/08 01:32:32;;;;;;;10.02;4.35;;;;;;;;;;5011549;28;20402;-73
2022/07/08 01:34:58;;;;;;;13.43;5.00;;;;;;;;;;5012681;28;20509;-73
2022/07/08 01:37:24;;;;;;;12.02;5.00;;;;;;;;;;5016216;28;20030;-73
2022/07/08 01:39:51;;;;;;;14.27;5.22;;;;;;;;;;5011494;28;20030;-74
2022/07/08 01:42:17;;;;;;;18.35;5.35;;;;;;;;;;5015748;28;20037;-74
2022/07/08 01:44:43;;;;;;;11.15;4.65;;;;;;;;;;5012438;28;20021;-74
2022/07/08 01:47:09;;;;;;;13.70;4.75;;;;;;;;;;5015469;28;20026;-73
2022/07/08 01:49:35;;;;;;;9.15;4.25;;;;;;;;;;5011912;28;20032;-73
2022/07/08 01:52:01;;;;;;;12.52;4.53;;;;;;;;;;5013123;28;20140;-74
2022/07/08 01:54:27;;;;;;;8.32;4.35;;;;;;;;;;5007697;28;20356;-73
2022/07/08 01:57:13;;;;;;;10.55;4.03;;;;;;;;;;5008278;28;20386;-75
2022/07/08 01:59:40;;;;;;;13.85;4.53;;;;;;;;;;5002444;28;20117;-74
2022/07/08 02:02:06;;;;;;;13.73;4.38;;;;;;;;;;5008464;28;20029;-74
2022/07/08 02:04:32;;;;;;;10.25;4.50;;;;;;;;;;5008474;28;20021;-74
2022/07/08 02:06:58;;;;;;;12.30;4.00;;;;;;;;;;5016322;28;20045;-75
2022/07/08 02:09:24;;;;;;;11.75;4.47;;;;;;;;;;5008842;28;20037;-74
2022/07/08 02:14:36;;;;;;;10.98;4.28;;;;;;;;;;5008613;28;20033;-74
2022/07/08 02:17:02;;;;;;;8.90;4.28;;;;;;;;;;5014610;28;20026;-73
2022/07/08 02:19:28;;;;;;;10.05;4.55;;;;;;;;;;5008957;28;20562;-74
2022/07/08 02:21:54;;;;;;;8.98;3.95;;;;;;;;;;5012674;28;20714;-74
2022/07/08 02:24:20;;;;;;;13.90;4.32;;;;;;;;;;5009001;28;20034;-74
2022/07/08 02:26:46;;;;;;;13.93;4.70;;;;;;;;;;5010580;28;20157;-74
2022/07/08 02:29:12;;;;;;;12.45;4.55;;;;;;;;;;5012466;28;20076;-74
2022/07/08 02:31:38;;;;;;;11.60;4.28;;;;;;;;;;5009561;28;20060;-74
2022/07/08 02:34:05;;;;;;;12.07;4.13;;;;;;;;;;5013429;28;20093;-73
2022/07/08 02:36:31;;;;;;;12.88;4.00;;;;;;;;;;5016254;28;20036;-74
2022/07/08 02:38:57;;;;;;;9.98;4.35;;;;;;;;;;5008568;28;20123;-74
2022/07/08 02:41:23;;;;;;;8.15;4.05;;;;;;;;;;5015443;28;20022;-74
2022/07/08 02:43:49;;;;;;;14.52;4.55;;;;;;;;;;5008777;28;20056;-74
2022/07/08 02:46:15;;;;;;;13.95;4.43;;;;;;;;;;5012692;28;20058;-74
2022/07/08 02:48:42;;;;;;;12.95;4.90;;;;;;;;;;5011763;28;20026;-74
2022/07/08 02:51:08;;;;;;;11.68;4.20;;;;;;;;;;5011540;28;20038;-74
2022/07/08 02:53:34;;;;;;;11.27;4.30;;;;;;;;;;5012977;28;20549;-74
2022/07/08 02:56:00;;;;;;;8.95;4.60;;;;;;;;;;5010527;28;20037;-73
2022/07/08 02:58:26;;;;;;;7.68;4.30;;;;;;;;;;5013481;28;20037;-74
2022/07/08 03:00:52;;;;;;;9.80;4.03;;;;;;;;;;5007202;28;20189;-74
2022/07/08 03:03:18;;;;;;;8.38;4.15;;;;;;;;;;5013113;28;20113;-74
2022/07/08 03:05:44;;;;;;;9.15;3.92;;;;;;;;;;5010461;28;20189;-74
2022/07/08 03:08:11;;;;;;;13.98;5.18;;;;;;;;;;5012486;28;20022;-74
2022/07/08 03:10:37;;;;;;;12.25;4.78;;;;;;;;;;5008750;28;20064;-74
2022/07/08 03:13:03;;;;;;;11.57;4.20;;;;;;;;;;5012492;28;20042;-74
2022/07/08 03:15:29;;;;;;;10.48;4.00;;;;;;;;;;5009225;28;20025;-74
2022/07/08 03:17:55;;;;;;;12.18;4.18;;;;;;;;;;5000017;28;20049;-74
2022/07/08 03:20:21;;;;;;;7.68;3.90;;;;;;;;;;4997847;28;20030;-74
2022/07/08 03:22:48;;;;;;;8.70;4.13;;;;;;;;;;5005687;28;20037;-74
2022/07/08 03:25:14;;;;;;;11.70;4.30;;;;;;;;;;5001044;28;20030;-74
2022/07/08 03:27:40;;;;;;;7.75;3.97;;;;;;;;;;5003454;28;20033;-74
2022/07/08 03:30:06;;;;;;;7.63;3.78;;;;;;;;;;5007658;28;20030;-74
2022/07/08 03:32:33;;;;;;;8.27;3.53;;;;;;;;;;5004484;28;20033;-74
2022/07/08 03:34:59;;;;;;;11.25;3.70;;;;;;;;;;5000689;28;20466;-74
2022/07/08 03:37:25;;;;;;;10.25;3.65;;;;;;;;;;5005925;28;20510;-74
2022/07/08 03:39:53;;;;;;;15.18;4.13;;;;;;;;;;5002576;28;20313;-74
2022/07/08 03:42:19;;;;;;;19.05;3.90;;;;;;;;;;5005892;28;20026;-74
2022/07/08 03:44:46;;;;;;;10.73;3.70;;;;;;;;;;5001445;28;20026;-74
2022/07/08 03:47:12;;;;;;;8.63;4.20;;;;;;;;;;5005523;28;20041;-75
2022/07/08 03:49:39;;;;;;;10.90;3.90;;;;;;;;;;5002124;28;20045;-74
2022/07/08 03:52:05;;;;;;;12.10;3.88;;;;;;;;;;5005879;28;20051;-74
2022/07/08 03:54:31;;;;;;;7.80;3.70;;;;;;;;;;4999340;28;20156;-74
2022/07/08 03:56:58;;;;;;;7.38;3.85;;;;;;;;;;5006124;28;20507;-74
2022/07/08 03:59:24;;;;;;;16.33;4.53;;;;;;;;;;4999879;28;20383;-74
2022/07/08 04:01:51;;;;;;;11.80;3.97;;;;;;;;;;5006694;28;20048;-75
2022/07/08 04:04:17;;;;;;;8.48;3.75;;;;;;;;;;4998419;28;20041;-74
2022/07/08 04:06:43;;;;;;;5.65;3.72;;;;;;;;;;5005470;28;20036;-74
2022/07/08 04:09:09;;;;;;;5.90;3.75;;;;;;;;;;5000653;28;20144;-74
2022/07/08 04:11:37;;;;;;;8.95;4.20;;;;;;;;;;5002200;28;20043;-74
2022/07/08 04:14:03;;;;;;;11.02;4.57;;;;;;;;;;5008297;28;20242;-74
2022/07/08 04:16:29;;;;;;;11.32;4.65;;;;;;;;;;5000258;28;20029;-74
2022/07/08 04:18:56;;;;;;;9.07;4.38;;;;;;;;;;5009165;28;20041;-74
2022/07/08 04:21:22;;;;;;;10.10;4.28;;;;;;;;;;5000676;28;20499;-75
2022/07/08 04:23:48;;;;;;;19.45;4.93;;;;;;;;;;5005298;28;20045;-75
2022/07/08 04:26:14;;;;;;;10.85;4.20;;;;;;;;;;5002434;28;20037;-74
2022/07/08 04:28:41;;;;;;;11.05;4.65;;;;;;;;;;5004351;28;20125;-74
2022/07/08 04:31:08;;;;;;;16.92;4.95;;;;;;;;;;5003316;28;20026;-74
2022/07/08 04:33:34;;;;;;;11.80;4.97;;;;;;;;;;5008532;28;20041;-74
2022/07/08 04:36:00;;;;;;;16.50;5.38;;;;;;;;;;4998416;28;20089;-74
2022/07/08 04:38:26;;;;;;;13.65;5.35;;;;;;;;;;5007008;28;20045;-74
2022/07/08 04:40:52;;;;;;;11.25;4.57;;;;;;;;;;4999874;28;20037;-74
2022/07/08 04:43:18;;;;;;;9.43;4.63;;;;;;;;;;5008357;28;20022;-74
2022/07/08 04:45:44;;;;;;;14.82;5.18;;;;;;;;;;4998185;28;20067;-74
2022/07/08 04:48:11;;;;;;;10.43;4.60;;;;;;;;;;5010628;28;20083;-74
2022/07/08 04:50:37;;;;;;;15.75;4.90;;;;;;;;;;5002979;28;20034;-74
2022/07/08 04:53:04;;;;;;;12.10;4.70;;;;;;;;;;5011185;28;20049;-74
2022/07/08 04:55:30;;;;;;;15.63;4.40;;;;;;;;;;5012257;28;20029;-75
2022/07/08 04:58:01;;;;;;;11.50;3.90;;;;;;;;;;5003377;28;20033;-73
2022/07/08 05:00:28;;;;;;;12.50;4.50;;;;;;;;;;5010974;28;20045;-74
2022/07/08 05:02:55;;;;;;;13.00;4.13;;;;;;;;;;4997236;28;20548;-73
2022/07/08 05:05:21;;;;;;;8.38;3.17;;;;;;;;;;5010810;28;20302;-74
2022/07/08 05:07:48;;;;;;;11.77;3.53;;;;;;;;;;5000409;28;20034;-74
2022/07/08 05:10:15;;;;;;;5.78;3.45;;;;;;;;;;5008818;28;20424;-74
2022/07/08 05:12:41;;;;;;;7.00;3.72;;;;;;;;;;5003251;28;20041;-73
2022/07/08 05:15:08;;;;;;;11.02;3.92;;;;;;;;;;5001422;28;20612;-74
2022/07/08 05:17:34;;;;;;;12.68;3.42;;;;;;;;;;4996473;28;20674;-73
2022/07/08 05:20:00;;;;;;;8.63;3.35;;;;;;;;;;4997031;28;20333;-74
2022/07/08 05:22:26;;;;;;;7.50;3.42;;;;;;;;;;4999548;28;20041;-74
2022/07/08 05:24:52;;;;;;;12.95;4.00;;;;;;;;;;5001521;28;20045;-73
2022/07/08 05:27:20;;;;;;;9.27;3.42;;;;;;;;;;5001194;28;20546;-74
2022/07/08 05:29:46;;;;;;;8.65;3.70;;;;;;;;;;4999848;28;20041;-74
2022/07/08 05:32:12;;;;;;;16.75;4.00;;;;;;;;;;4999122;28;20042;-74
2022/07/08 05:34:41;;;;;;;9.02;3.22;;;;;;;;;;5006479;28;20017;-73
2022/07/08 05:37:08;;;;;;;6.72;3.00;;;;;;;;;;4999807;28;20041;-74
2022/07/08 05:39:34;;;;;;;7.82;3.80;;;;;;;;;;5006508;28;20025;-73
2022/07/08 05:42:00;;;;;;;7.40;4.45;;;;;;;;;;5008627;28;20030;-74
2022/07/08 05:44:26;;;;;;;11.68;4.40;;;;;;;;;;5001827;28;20025;-73
2022/07/08 05:46:52;;;;;;;7.95;3.47;;;;;;;;;;5009138;28;20055;-74
2022/07/08 05:49:18;;;;;;;7.28;3.75;;;;;;;;;;5001097;28;20025;-73
2022/07/08 05:51:45;;;;;;;5.53;2.75;;;;;;;;;;5011866;28;20179;-74
2022/07/08 05:54:11;;;;;;;9.50;3.10;;;;;;;;;;5004080;28;20084;-74
2022/07/08 05:56:37;;;;;;;7.40;3.25;;;;;;;;;;5008740;28;20091;-73
2022/07/08 05:59:03;;;;;;;4.78;2.50;;;;;;;;;;5003972;28;20049;-73
2022/07/08 06:01:30;;;;;;;9.32;3.20;;;;;;;;;;5008340;28;20038;-74
2022/07/08 06:03:56;;;;;;;8.07;3.30;;;;;;;;;;5014156;28;20064;-75
2022/07/08 06:06:22;;;;;;;5.97;3.53;;;;;;;;;;5005084;28;20092;-74
2022/07/08 06:08:48;;;;;;;6.93;3.22;;;;;;;;;;5022266;28;20048;-73
2022/07/08 06:11:15;;;;;;;6.25;3.15;;;;;;;;;;5023363;28;20056;-74
2022/07/08 06:13:41;;;;;;;10.63;4.32;;;;;;;;;;5012876;28;20042;-73
2022/07/08 06:16:07;;;;;;;7.95;3.58;;;;;;;;;;5022937;28;20626;-72
2022/07/08 06:18:36;;;;;;;16.02;3.80;;;;;;;;;;5019006;28;20080;-73
2022/07/08 06:21:02;;;;;;;14.68;5.28;;;;;;;;;;5019306;28;20053;-73
2022/07/08 06:23:29;;;;;;;16.80;7.20;;;;;;;;;;5007312;28;20025;-72
2022/07/08 06:25:55;;;;;;;14.63;5.15;;;;;;;;;;5000561;28;20026;-73
2022/07/08 06:28:21;;;;;;;5.80;4.30;;;;;;;;;;5001469;28;20369;-73
2022/07/08 06:30:47;;;;;;;6.75;2.90;;;;;;;;;;5001048;28;20049;-74
2022/07/08 06:33:14;;;;;;;7.45;2.72;;;;;;;;;;5007679;28;20073;-73
2022/07/08 06:35:40;;;;;;;8.48;2.70;;;;;;;;;;5015509;28;20032;-74
2022/07/08 06:38:06;;;;;;;10.00;3.30;;;;;;;;;;5009143;28;20018;-73
2022/07/08 06:40:32;;;;;;;7.13;2.55;;;;;;;;;;5013660;28;20064;-74
2022/07/08 06:42:58;;;;;;;7.75;2.45;;;;;;;;;;5004570;28;20164;-74
2022/07/08 06:45:24;;;;;;;9.63;2.70;;;;;;;;;;4993733;28;20037;-74
2022/07/08 06:47:50;;;;;;;20.95;3.78;;;;;;;;;;4998238;28;20052;-73
2022/07/08 06:50:17;;;;;;;40.13;5.30;;;;;;;;;;5000226;28;20026;-74
2022/07/08 06:52:43;;;;;;;17.85;3.30;;;;;;;;;;4994092;28;20516;-73
2022/07/08 06:55:09;;;;;;;8.23;2.53;;;;;;;;;;5000152;28;20454;-75
2022/07/08 06:57:36;;;;;;;4.68;2.20;;;;;;;;;;4994091;28;20030;-74
2022/07/08 07:00:04;;;;;;;7.50;2.50;;;;;;;;;;4985624;28;20035;-73
2022/07/08 07:02:30;;;;;;;10.00;2.33;;;;;;;;;;4985665;28;20034;-74
2022/07/08 07:04:56;;;;;;;5.65;2.35;;;;;;;;;;4994714;28;20020;-75
2022/07/08 07:07:23;;;;;;;4.30;2.10;;;;;;;;;;4994630;28;20359;-75
2022/07/08 07:09:49;;;;;;;5.95;3.00;;;;;;;;;;4997336;28;20036;-75
2022/07/08 07:12:15;;;;;;;6.00;2.40;;;;;;;;;;4991258;28;20042;-75
2022/07/08 07:14:41;;;;;;;5.35;2.58;;;;;;;;;;4987556;28;20049;-77
2022/07/08 07:17:08;;;;;;;4.50;2.45;;;;;;;;;;4986160;28;20032;-74
2022/07/08 07:19:34;;;;;;;6.88;2.40;;;;;;;;;;4982217;28;20022;-74
2022/07/08 07:22:00;;;;;;;8.40;2.67;;;;;;;;;;4992528;28;20026;-75
2022/07/08 07:24:27;;;;;;;4.68;2.17;;;;;;;;;;4995114;28;20022;-75
2022/07/08 07:26:53;;;;;;;7.13;2.35;;;;;;;;;;4989217;28;20026;-75
2022/07/08 07:29:19;;;;;;;8.55;2.83;;;;;;;;;;5000541;28;20049;-74
2022/07/08 07:31:45;;;;;;;6.30;2.45;;;;;;;;;;5001194;28;20036;-75
2022/07/08 07:34:11;;;;;;;8.50;2.40;;;;;;;;;;5007840;28;20045;-74
2022/07/08 07:36:38;;;;;;;4.05;2.17;;;;;;;;;;5004738;28;20180;-75
2022/07/08 07:39:04;;;;;;;6.50;2.58;;;;;;;;;;5010262;28;20103;-74
2022/07/08 07:41:30;;;;;;;4.85;2.33;;;;;;;;;;5019651;28;20058;-76
2022/07/08 07:43:56;;;;;;;7.80;2.10;;;;;;;;;;5016938;28;20036;-76
2022/07/08 07:46:22;;;;;;;5.75;2.30;;;;;;;;;;5019745;28;20432;-75
2022/07/08 07:48:49;;;;;;;7.10;2.33;;;;;;;;;;5000463;28;20033;-75
2022/07/08 07:51:15;;;;;;;8.27;2.72;;;;;;;;;;5011664;28;20463;-76
2022/07/08 07:53:41;;;;;;;6.35;2.33;;;;;;;;;;5008524;28;20368;-75
2022/07/08 07:56:07;;;;;;;7.55;2.63;;;;;;;;;;4989543;28;20018;-75
2022/07/08 07:58:33;;;;;;;5.68;2.28;;;;;;;;;;4984670;28;20606;-75
2022/07/08 08:01:00;;;;;;;5.68;2.72;;;;;;;;;;5000282;28;20086;-75
2022/07/08 08:03:26;;;;;;;7.88;3.03;;;;;;;;;;4999354;28;20018;-75
2022/07/08 08:05:52;;;;;;;9.35;3.13;;;;;;;;;;4999876;28;20112;-75
2022/07/08 08:08:18;;;;;;;6.97;2.35;;;;;;;;;;4998616;28;20022;-76
2022/07/08 08:10:45;;;;;;;7.55;2.63;;;;;;;;;;5001821;28;20073;-74
2022/07/08 08:13:11;;;;;;;7.78;2.63;;;;;;;;;;5000398;28;20038;-77
2022/07/08 08:15:37;;;;;;;13.13;3.40;;;;;;;;;;5000430;28;20040;-74
2022/07/08 08:18:03;;;;;;;7.10;2.65;;;;;;;;;;4999825;28;20049;-75
2022/07/08 08:20:30;;;;;;;6.85;2.60;;;;;;;;;;5000641;28;20366;-75
2022/07/08 08:22:56;;;;;;;7.40;2.25;;;;;;;;;;5003117;28;20045;-74
2022/07/08 08:25:22;;;;;;;4.80;2.45;;;;;;;;;;5003844;28;20033;-74
2022/07/08 08:27:49;;;;;;;6.65;2.28;;;;;;;;;;5004069;28;20065;-74
2022/07/08 08:30:16;;;;;;;5.78;2.33;;;;;;;;;;5004386;28;20037;-75
2022/07/08 08:32:42;;;;;;;8.35;2.58;;;;;;;;;;5004306;28;20030;-75
2022/07/08 08:35:12;;;;;;;5.10;2.50;;;;;;;;;;5012254;28;20017;-74
2022/07/08 08:37:38;;;;;;;7.07;2.65;;;;;;;;;;5020267;28;20029;-74
2022/07/08 08:40:05;;;;;;;6.30;2.58;;;;;;;;;;5014325;28;20033;-76
2022/07/08 08:42:31;;;;;;;7.00;2.78;;;;;;;;;;5011996;28;20030;-75
2022/07/08 08:44:58;;;;;;;7.75;2.97;;;;;;;;;;4996865;28;20774;-74
2022/07/08 08:47:28;;;;;;;8.25;2.50;;;;;;;;;;5011254;28;20699;-74
2022/07/08 08:49:55;;;;;;;7.70;2.60;;;;;;;;;;5020975;28;20021;-75
2022/07/08 08:52:23;;;;;;;7.65;2.75;;;;;;;;;;5005231;28;20037;-75
2022/07/08 08:54:49;;;;;;;8.50;2.72;;;;;;;;;;5013316;28;20072;-76
2022/07/08 08:57:17;;;;;;;5.63;2.38;;;;;;;;;;5002092;28;20392;-74
2022/07/08 08:59:43;;;;;;;7.40;2.60;;;;;;;;;;5002997;28;20099;-75
2022/07/08 09:02:11;;;;;;;7.40;2.58;;;;;;;;;;5003394;28;20127;-75
2022/07/08 09:04:37;;;;;;;7.13;2.78;;;;;;;;;;5002034;28;20033;-75
2022/07/08 09:07:04;;;;;;;6.03;2.63;;;;;;;;;;5003821;28;20752;-75
2022/07/08 09:09:30;;;;;;;5.50;2.53;;;;;;;;;;5003846;28;20038;-75
2022/07/08 09:11:56;;;;;;;5.95;2.45;;;;;;;;;;5003714;28;20033;-75
2022/07/08 09:14:23;;;;;;;7.65;2.42;;;;;;;;;;5003926;28;20127;-75
2022/07/08 09:17:09;;;;;;;8.43;2.60;;;;;;;;;;5001814;28;20041;-74
2022/07/08 09:19:36;;;;;;;6.38;2.92;;;;;;;;;;5003404;28;20033;-75
2022/07/08 09:22:02;;;;;;;7.40;2.50;;;;;;;;;;5003805;28;20014;-75
2022/07/08 09:24:29;;;;;;;5.78;2.85;;;;;;;;;;5003349;28;20022;-76
2022/07/08 09:26:58;;;;;;;3.00;1.90;;;;;;;;;;5003280;28;20409;-76
2022/07/08 09:29:24;;;;;;;4.03;2.15;;;;;;;;;;5002940;28;20026;-76
2022/07/08 09:31:50;;;;;;;6.97;2.80;;;;;;;;;;5001482;28;20038;-75
2022/07/08 09:34:20;;;;;;;8.85;3.15;;;;;;;;;;5018785;28;20033;-76
2022/07/08 09:36:47;;;;;;;7.40;2.40;;;;;;;;;;5011861;28;20021;-75
2022/07/08 09:39:28;;;;;;;10.50;2.70;;;;;;;;;;5022942;28;20074;-74
2022/07/08 09:41:54;;;;;;;10.68;3.05;;;;;;;;;;5010595;28;20060;-74
2022/07/08 09:44:23;;;;;;;5.57;2.60;;;;;;;;;;5022695;28;20079;-75
2022/07/08 09:46:50;;;;;;;6.75;2.60;;;;;;;;;;5009759;28;20068;-76
2022/07/08 09:49:29;;;;;;;7.93;2.80;;;;;;;;;;5023054;28;20025;-73
2022/07/08 09:51:59;;;;;;;5.45;1.92;;;;;;;;;;5000124;28;20449;-73
2022/07/08 09:54:26;;;;;;;4.63;2.70;;;;;;;;;;5016853;28;20034;-71
2022/07/08 09:56:58;;;;;;;9.75;2.83;;;;;;;;;;4999959;28;20018;-71
2022/07/08 09:59:24;;;;;;;7.22;2.42;;;;;;;;;;5018130;28;20091;-74
2022/07/08 10:01:53;;;;;;;8.77;3.08;;;;;;;;;;5010070;28;20026;-73
2022/07/08 10:04:20;;;;;;;6.50;2.55;;;;;;;;;;5011220;28;20036;-73
2022/07/08 10:06:46;;;;;;;5.88;2.72;;;;;;;;;;5005165;28;20485;-75
2022/07/08 10:09:14;;;;;;;7.00;2.60;;;;;;;;;;5021233;28;20032;-72
2022/07/08 10:11:40;;;;;;;7.32;2.92;;;;;;;;;;5022133;28;20022;-73
2022/07/08 10:14:08;;;;;;;11.20;3.53;;;;;;;;;;5020947;28;20112;-73
2022/07/08 10:16:35;;;;;;;6.07;2.67;;;;;;;;;;5004063;28;20042;-72
2022/07/08 10:19:03;;;;;;;7.03;2.80;;;;;;;;;;5008944;28;20029;-73
2022/07/08 10:21:29;;;;;;;8.73;3.00;;;;;;;;;;5001157;28;20034;-73
2022/07/08 10:23:55;;;;;;;10.60;3.13;;;;;;;;;;5017090;28;20029;-73
2022/07/08 10:26:40;;;;;;;9.50;3.05;;;;;;;;;;5013663;28;20036;-72
2022/07/08 10:29:10;;;;;;;7.78;2.97;;;;;;;;;;5015587;28;20051;-72
2022/07/08 10:31:53;;;;;;;9.50;2.92;;;;;;;;;;5011300;28;20494;-74
2022/07/08 10:34:21;;;;;;;7.35;2.97;;;;;;;;;;5014886;28;20065;-71
2022/07/08 10:36:47;;;;;;;8.15;3.00;;;;;;;;;;5018673;28;20018;-72
2022/07/08 10:39:14;;;;;;;9.98;3.42;;;;;;;;;;5014137;28;20033;-72
2022/07/08 10:41:40;;;;;;;9.68;3.30;;;;;;;;;;5019705;28;20025;-71
2022/07/08 10:44:08;;;;;;;5.63;2.80;;;;;;;;;;5015292;28;20029;-71
2022/07/08 10:46:34;;;;;;;9.73;3.20;;;;;;;;;;5008243;28;20076;-71
2022/07/08 10:49:01;;;;;;;8.40;3.10;;;;;;;;;;5011297;28;20515;-71
2022/07/08 10:51:29;;;;;;;16.60;12.13;;;;;;;;;;5017748;28;20089;-71
2022/07/08 10:53:57;;;;;;;46.35;27.13;;;;;;;;;;5002381;28;20042;-71
2022/07/08 10:56:41;;;;;;;36.13;19.70;;;;;;;;;;5003927;28;20040;-71
2022/07/08 10:59:27;;;;;;;26.05;14.73;;;;;;;;;;5007744;28;20072;-73
2022/07/08 11:02:14;;;;;;;24.70;12.32;;;;;;;;;;5001229;28;20044;-73
2022/07/08 11:04:40;;;;;;;20.02;9.50;;;;;;;;;;5005799;28;20052;-73
2022/07/08 11:07:28;;;;;;;28.15;13.25;;;;;;;;;;5007375;28;20599;-75
2022/07/08 11:09:55;;;;;;;21.08;10.57;;;;;;;;;;5010380;28;20044;-73
2022/07/08 11:12:26;;;;;;;21.42;7.95;;;;;;;;;;5005945;28;20038;-75
2022/07/08 11:14:53;;;;;;;16.63;6.23;;;;;;;;;;5007506;28;20045;-74
2022/07/08 11:17:23;;;;;;;12.52;4.60;;;;;;;;;;5007225;28;20868;-74
2022/07/08 11:19:50;;;;;;;10.23;3.83;;;;;;;;;;5001088;28;20041;-74
2022/07/08 11:22:16;;;;;;;9.55;3.35;;;;;;;;;;5006098;28;20029;-74
2022/07/08 11:24:44;;;;;;;9.18;3.50;;;;;;;;;;5000318;28;20026;-74
2022/07/08 11:27:10;;;;;;;11.05;3.95;;;;;;;;;;5002771;28;20052;-74
2022/07/08 11:29:36;;;;;;;11.10;4.05;;;;;;;;;;5008354;28;20029;-73
2022/07/08 11:32:06;;;;;;;11.00;3.42;;;;;;;;;;5002918;28;20038;-74
2022/07/08 11:34:32;;;;;;;11.68;3.63;;;;;;;;;;5001209;28;20513;-75
2022/07/08 11:36:59;;;;;;;11.68;3.50;;;;;;;;;;5006427;28;20457;-73
2022/07/08 11:39:26;;;;;;;9.40;2.70;;;;;;;;;;5003430;28;20022;-73
2022/07/08 11:41:52;;;;;;;12.95;3.92;;;;;;;;;;5006944;28;20623;-74
2022/07/08 11:44:20;;;;;;;9.00;3.67;;;;;;;;;;4998254;28;20084;-75
2022/07/08 11:46:50;;;;;;;11.90;3.83;;;;;;;;;;5005898;28;20561;-74
2022/07/08 11:49:17;;;;;;;11.70;3.75;;;;;;;;;;4997159;28;20490;-75
2022/07/08 11:51:51;;;;;;;11.40;3.30;;;;;;;;;;5006668;28;20057;-75
2022/07/08 11:54:20;;;;;;;7.68;3.00;;;;;;;;;;4991940;28;20033;-75
2022/07/08 11:56:46;;;;;;;8.50;3.20;;;;;;;;;;5005459;28;20064;-73
2022/07/08 11:59:12;;;;;;;10.63;3.63;;;;;;;;;;4997126;28;20099;-75
2022/07/08 12:01:39;;;;;;;11.85;3.15;;;;;;;;;;5004294;28;20618;-74
2022/07/08 12:04:06;;;;;;;8.63;3.15;;;;;;;;;;5008083;28;20722;-73
2022/07/08 12:06:33;;;;;;;14.63;3.75;;;;;;;;;;5002161;28;20022;-74
2022/07/08 12:09:07;;;;;;;14.27;3.50;;;;;;;;;;5008919;28;20029;-73
2022/07/08 12:11:39;;;;;;;12.73;3.50;;;;;;;;;;4995225;28;20081;-74
2022/07/08 12:14:07;;;;;;;12.65;4.05;;;;;;;;;;4997641;28;20378;-74
2022/07/08 12:16:34;;;;;;;11.63;3.65;;;;;;;;;;4994758;28;20896;-76
2022/07/08 12:19:01;;;;;;;12.93;3.47;;;;;;;;;;5004846;28;20041;-76
2022/07/08 12:21:28;;;;;;;9.98;3.10;;;;;;;;;;5000314;28;20026;-74
2022/07/08 12:23:58;;;;;;;11.40;2.90;;;;;;;;;;5001053;28;20036;-79
2022/07/08 12:26:24;;;;;;;12.03;3.57;;;;;;;;;;4999951;28;20049;-74
2022/07/08 12:28:50;;;;;;;8.77;3.53;;;;;;;;;;5000122;28;20574;-76
2022/07/08 12:31:32;;;;;;;10.43;3.78;;;;;;;;;;5001940;28;20104;-74
2022/07/08 12:34:02;;;;;;;12.65;3.80;;;;;;;;;;4996689;28;20045;-73
2022/07/08 12:36:28;;;;;;;15.05;3.33;;;;;;;;;;5000317;28;20036;-74
2022/07/08 12:38:55;;;;;;;8.20;2.88;;;;;;;;;;4996993;28;20117;-77
2022/07/08 12:41:24;;;;;;;10.02;3.40;;;;;;;;;;5002682;28;20026;-78
2022/07/08 12:43:50;;;;;;;15.95;3.88;;;;;;;;;;4997515;28;20057;-73
2022/07/08 12:46:16;;;;;;;10.48;3.28;;;;;;;;;;5001541;28;20025;-74
2022/07/08 12:48:42;;;;;;;12.25;3.42;;;;;;;;;;5000363;28;20034;-72
2022/07/08 12:51:08;;;;;;;11.68;3.60;;;;;;;;;;4999896;28;20034;-75
2022/07/08 12:53:35;;;;;;;14.70;3.47;;;;;;;;;;5002877;28;20388;-77
2022/07/08 12:56:01;;;;;;;13.23;3.88;;;;;;;;;;4998813;28;20041;-73
2022/07/08 12:58:27;;;;;;;12.88;3.40;;;;;;;;;;5001894;28;20030;-77
2022/07/08 13:00:54;;;;;;;12.15;3.58;;;;;;;;;;4999117;28;20142;-76
2022/07/08 13:03:20;;;;;;;9.35;3.88;;;;;;;;;;5001168;28;20103;-74
2022/07/08 13:05:46;;;;;;;16.77;3.80;;;;;;;;;;4999116;28;20168;-74
2022/07/08 13:08:12;;;;;;;12.30;3.75;;;;;;;;;;5006801;28;20022;-76
2022/07/08 13:10:38;;;;;;;17.60;3.67;;;;;;;;;;5009991;28;20029;-74
2022/07/08 13:13:08;;;;;;;10.32;3.42;;;;;;;;;;4998587;28;20038;-75
2022/07/08 13:15:34;;;;;;;17.13;3.78;;;;;;;;;;5002877;28;20117;-77
2022/07/08 13:18:00;;;;;;;13.40;4.10;;;;;;;;;;5005768;28;20047;-77
2022/07/08 13:20:26;;;;;;;13.60;3.55;;;;;;;;;;5005347;28;20030;-74
2022/07/08 13:22:53;;;;;;;11.77;3.55;;;;;;;;;;5005635;28;20095;-77
2022/07/08 13:25:19;;;;;;;22.63;4.85;;;;;;;;;;4999472;28;20057;-79
2022/07/08 13:27:45;;;;;;;13.30;3.35;;;;;;;;;;4997702;28;20033;-77
2022/07/08 13:30:12;;;;;;;11.57;3.33;;;;;;;;;;5007411;28;20173;-77
2022/07/08 13:32:38;;;;;;;11.23;3.30;;;;;;;;;;5003039;28;20033;-75
2022/07/08 13:35:05;;;;;;;10.70;3.20;;;;;;;;;;5005211;28;20849;-76
2022/07/08 13:37:31;;;;;;;13.52;4.15;;;;;;;;;;5002949;28;20052;-78
2022/07/08 13:39:57;;;;;;;17.75;4.28;;;;;;;;;;5001529;28;20037;-76
2022/07/08 13:42:24;;;;;;;11.48;3.53;;;;;;;;;;5004181;28;20030;-76
2022/07/08 13:44:50;;;;;;;8.73;3.92;;;;;;;;;;5006574;28;20034;-75
2022/07/08 13:47:16;;;;;;;11.70;3.70;;;;;;;;;;5003520;28;20531;-78
2022/07/08 13:49:42;;;;;;;16.67;4.35;;;;;;;;;;5005309;28;20042;-76
2022/07/08 13:52:08;;;;;;;13.13;4.28;;;;;;;;;;5001943;28;20032;-77
2022/07/08 13:54:34;;;;;;;17.00;3.58;;;;;;;;;;5005479;28;20080;-76
2022/07/08 13:57:01;;;;;;;10.10;3.40;;;;;;;;;;5002325;28;20041;-78
2022/07/08 13:59:27;;;;;;;15.98;3.80;;;;;;;;;;5005238;28;20057;-77
2022/07/08 14:01:53;;;;;;;9.77;3.72;;;;;;;;;;5009321;28;20034;-77
2022/07/08 14:04:19;;;;;;;9.77;3.45;;;;;;;;;;5003017;28;20030;-76
2022/07/08 14:06:45;;;;;;;12.55;3.58;;;;;;;;;;5008242;28;20036;-77
2022/07/08 14:09:11;;;;;;;11.30;4.22;;;;;;;;;;5004111;28;20474;-77
2022/07/08 14:11:37;;;;;;;12.52;4.43;;;;;;;;;;5005866;28;20141;-78
2022/07/08 14:14:04;;;;;;;13.35;4.20;;;;;;;;;;5001550;28;20037;-76
2022/07/08 14:16:30;;;;;;;13.38;4.28;;;;;;;;;;5005963;28;20025;-77
2022/07/08 14:18:56;;;;;;;16.42;4.05;;;;;;;;;;5001334;28;20061;-77
2022/07/08 14:21:22;;;;;;;12.23;3.88;;;;;;;;;;5003845;28;20229;-77
2022/07/08 14:23:48;;;;;;;10.82;4.00;;;;;;;;;;5010304;28;20115;-78
2022/07/08 14:26:15;;;;;;;13.88;4.70;;;;;;;;;;5003028;28;20079;-77
2022/07/08 14:28:41;;;;;;;10.68;3.85;;;;;;;;;;5008829;28;20033;-77
2022/07/08 14:31:07;;;;;;;14.60;3.75;;;;;;;;;;5004293;28;20033;-76
2022/07/08 14:33:34;;;;;;;17.55;4.68;;;;;;;;;;5006298;28;20087;-77
2022/07/08 14:36:02;;;;;;;15.23;4.45;;;;;;;;;;5003827;28;20309;-77
2022/07/08 14:38:28;;;;;;;13.23;4.60;;;;;;;;;;5002551;28;20576;-76